createdAt,value
2023-05-02T00:00:56.217Z,1.83
2023-05-02T00:02:29.631Z,2.00
2023-05-02T00:04:03.452Z,1.90
2023-05-02T00:05:35.664Z,2.17
2023-05-02T00:07:09.088Z,2.20
2023-05-02T00:08:42.227Z,1.70
2023-05-02T00:10:15.363Z,2.42
2023-05-02T00:11:49.769Z,1.85
2023-05-02T00:13:22.849Z,2.10
2023-05-02T00:14:56.077Z,2.45
2023-05-02T00:16:29.488Z,1.90
2023-05-02T00:18:02.673Z,1.85
2023-05-02T00:19:39.990Z,2.00
2023-05-02T00:21:14.107Z,2.10
2023-05-02T00:22:47.283Z,2.40
2023-05-02T00:24:20.471Z,2.15
2023-05-02T00:25:53.914Z,2.00
2023-05-02T00:27:28.413Z,2.20
2023-05-02T00:29:01.639Z,2.50
2023-05-02T00:30:34.780Z,2.60
2023-05-02T00:32:08.229Z,2.38
2023-05-02T00:33:41.479Z,2.15
2023-05-02T00:35:13.702Z,2.30
2023-05-02T00:36:46.868Z,2.65
2023-05-02T00:38:19.965Z,2.17
2023-05-02T00:39:52.022Z,2.10
2023-05-02T00:41:25.314Z,2.85
2023-05-02T00:42:58.894Z,2.55
2023-05-02T00:44:32.577Z,2.58
2023-05-02T00:46:06.388Z,3.03
2023-05-02T00:47:39.940Z,2.63
2023-05-02T00:49:13.233Z,2.38
2023-05-02T00:50:46.495Z,2.67
2023-05-02T00:52:20.737Z,2.40
2023-05-02T00:53:53.615Z,2.90
2023-05-02T00:55:27.268Z,2.90
2023-05-02T00:57:00.593Z,2.60
2023-05-02T00:58:35.428Z,2.90
2023-05-02T01:02:06.460Z,3.15
2023-05-02T01:03:51.945Z,2.95
2023-05-02T01:05:39.722Z,3.35
2023-05-02T01:07:32.974Z,3.03
2023-05-02T01:09:22.334Z,2.97
2023-05-02T01:11:06.932Z,3.35
2023-05-02T01:12:48.188Z,3.63
2023-05-02T01:14:23.707Z,2.83
2023-05-02T01:15:59.799Z,3.38
2023-05-02T01:17:35.456Z,3.78
2023-05-02T01:19:20.208Z,3.83
2023-05-02T01:20:58.451Z,3.83
2023-05-02T01:22:34.597Z,4.38
2023-05-02T01:24:19.118Z,4.63
2023-05-02T01:26:16.687Z,4.68
2023-05-02T01:28:06.580Z,4.78
2023-05-02T01:29:44.360Z,5.07
2023-05-02T01:31:19.122Z,5.47
2023-05-02T01:32:56.200Z,5.88
2023-05-02T01:34:32.152Z,6.15
2023-05-02T01:36:08.348Z,5.57
2023-05-02T01:37:44.865Z,6.53
2023-05-02T01:39:25.034Z,6.00
2023-05-02T01:41:03.606Z,5.65
2023-05-02T01:42:38.983Z,6.10
2023-05-02T01:44:12.855Z,6.00
2023-05-02T01:45:51.984Z,6.28
2023-05-02T01:47:27.602Z,6.55
2023-05-02T01:49:06.729Z,6.40
2023-05-02T01:50:44.445Z,6.47
2023-05-02T01:52:22.596Z,6.35
2023-05-02T01:53:55.021Z,6.85
2023-05-02T01:55:30.055Z,5.93
2023-05-02T01:57:08.074Z,5.13
2023-05-02T01:58:42.019Z,6.03
2023-05-02T02:00:18.353Z,6.10
2023-05-02T02:01:53.958Z,5.45
2023-05-02T02:03:28.457Z,5.70
2023-05-02T02:05:05.767Z,5.63
2023-05-02T02:06:45.418Z,5.97
2023-05-02T02:08:18.750Z,6.07
2023-05-02T02:09:52.804Z,5.68
2023-05-02T02:13:14.195Z,5.30
2023-05-02T02:14:56.177Z,4.90
2023-05-02T02:16:34.937Z,5.32
2023-05-02T02:18:15.868Z,5.28
2023-05-02T02:19:54.494Z,5.63
2023-05-02T02:21:31.929Z,5.72
2023-05-02T02:23:09.240Z,6.03
2023-05-02T02:24:43.932Z,5.65
2023-05-02T02:26:20.877Z,5.53
2023-05-02T02:27:55.077Z,5.25
2023-05-02T02:29:28.424Z,5.30
2023-05-02T02:31:02.235Z,4.90
2023-05-02T02:32:35.545Z,5.20
2023-05-02T02:34:10.209Z,5.80
2023-05-02T02:35:50.407Z,5.38
2023-05-02T02:37:32.090Z,5.57
2023-05-02T02:39:22.425Z,5.78
2023-05-02T02:41:07.483Z,5.03
2023-05-02T02:44:40.881Z,5.15
2023-05-02T02:46:30.444Z,5.55
2023-05-02T02:48:20.431Z,5.55
2023-05-02T02:50:12.433Z,6.35
2023-05-02T02:51:54.314Z,6.65
2023-05-02T02:53:48.224Z,7.60
2023-05-02T02:55:36.625Z,6.93
2023-05-02T02:57:19.581Z,8.00
2023-05-02T02:59:04.315Z,7.57
2023-05-02T03:00:38.906Z,7.50
2023-05-02T03:02:18.384Z,6.90
2023-05-02T03:03:54.480Z,7.45
2023-05-02T03:05:30.654Z,7.32
2023-05-02T03:07:04.073Z,7.32
2023-05-02T03:08:41.161Z,7.90
2023-05-02T03:10:16.436Z,8.00
2023-05-02T03:11:49.564Z,8.75
2023-05-02T03:13:23.277Z,8.90
2023-05-02T03:15:12.052Z,12.27
2023-05-02T03:16:45.678Z,12.77
2023-05-02T03:18:21.707Z,13.15
2023-05-02T03:19:54.846Z,12.88
2023-05-02T03:21:31.406Z,14.63
2023-05-02T03:23:08.252Z,15.30
2023-05-02T03:24:41.680Z,16.48
2023-05-02T03:26:16.055Z,14.45
2023-05-02T03:27:49.466Z,15.13
2023-05-02T03:29:23.006Z,15.32
2023-05-02T03:30:55.494Z,16.30
2023-05-02T03:32:28.815Z,15.90
2023-05-02T03:34:02.148Z,15.55
2023-05-02T03:35:35.686Z,15.30
2023-05-02T03:37:10.337Z,15.18
2023-05-02T03:38:44.181Z,15.65
2023-05-02T03:40:21.606Z,16.63
2023-05-02T03:41:54.974Z,15.63
2023-05-02T03:43:29.552Z,14.95
2023-05-02T03:45:03.208Z,14.10
2023-05-02T03:46:37.632Z,15.13
2023-05-02T03:48:14.325Z,12.52
2023-05-02T03:49:47.705Z,13.27
2023-05-02T03:51:21.710Z,13.45
2023-05-02T03:52:59.608Z,13.73
2023-05-02T03:54:43.617Z,13.00
2023-05-02T03:56:20.726Z,14.00
2023-05-02T03:58:02.618Z,13.52
2023-05-02T03:59:36.000Z,12.85
2023-05-02T04:01:18.639Z,12.32
2023-05-02T04:02:55.113Z,12.88
2023-05-02T04:04:33.176Z,12.05
2023-05-02T04:06:06.821Z,12.30
2023-05-02T04:07:39.988Z,12.25
2023-05-02T04:09:15.253Z,11.30
2023-05-02T04:10:55.386Z,12.02
2023-05-02T04:12:30.821Z,10.85
2023-05-02T04:14:04.229Z,10.63
2023-05-02T04:15:37.381Z,10.32
2023-05-02T04:17:11.236Z,10.68
2023-05-02T04:20:25.899Z,9.82
2023-05-02T04:21:59.878Z,9.65
2023-05-02T04:23:34.208Z,9.73
2023-05-02T04:25:10.495Z,10.68
2023-05-02T04:26:47.458Z,10.23
2023-05-02T04:28:21.702Z,10.77
2023-05-02T04:29:55.868Z,10.63
2023-05-02T04:31:29.424Z,10.93
2023-05-02T04:33:02.730Z,10.50
2023-05-02T04:34:39.523Z,9.40
2023-05-02T04:36:12.876Z,9.30
2023-05-02T04:37:49.117Z,9.63
2023-05-02T04:39:23.238Z,9.13
2023-05-02T04:41:24.011Z,10.15
2023-05-02T04:43:03.356Z,9.60
2023-05-02T04:46:23.440Z,9.25
2023-05-02T04:47:57.050Z,8.48
2023-05-02T04:49:30.233Z,9.38
2023-05-02T04:51:03.437Z,8.63
2023-05-02T04:52:37.496Z,7.78
2023-05-02T04:54:11.285Z,8.68
2023-05-02T04:55:44.780Z,8.60
2023-05-02T04:57:20.886Z,8.77
2023-05-02T04:58:59.260Z,8.07
2023-05-02T05:00:32.542Z,7.35
2023-05-02T05:02:07.957Z,7.50
2023-05-02T05:03:42.289Z,8.05
2023-05-02T05:05:16.421Z,7.35
2023-05-02T05:06:49.661Z,7.47
2023-05-02T05:08:24.097Z,7.88
2023-05-02T05:09:57.274Z,7.07
2023-05-02T05:11:33.309Z,7.78
2023-05-02T05:13:07.934Z,7.38
2023-05-02T05:16:14.652Z,6.28
2023-05-02T05:17:48.579Z,5.93
2023-05-02T05:19:21.721Z,6.47
2023-05-02T05:20:54.918Z,7.85
2023-05-02T05:22:28.106Z,7.07
2023-05-02T05:24:02.255Z,7.32
2023-05-02T05:25:35.787Z,6.93
2023-05-02T05:27:09.629Z,6.50
2023-05-02T05:28:45.120Z,7.63
2023-05-02T05:30:19.374Z,6.38
2023-05-02T05:31:52.834Z,7.60
2023-05-02T05:33:27.405Z,7.25
2023-05-02T05:35:00.812Z,7.30
2023-05-02T05:36:34.745Z,7.57
2023-05-02T05:38:09.315Z,7.50
2023-05-02T05:39:44.235Z,6.78
2023-05-02T05:41:18.113Z,7.55
2023-05-02T05:42:54.574Z,7.55
2023-05-02T05:44:34.101Z,6.97
2023-05-02T05:47:42.498Z,6.97
2023-05-02T05:49:18.247Z,6.63
2023-05-02T05:50:52.588Z,6.93
2023-05-02T05:52:25.973Z,7.30
2023-05-02T05:54:01.021Z,7.30
2023-05-02T05:55:37.225Z,7.03
2023-05-02T05:57:10.778Z,6.97
2023-05-02T05:58:44.361Z,6.40
2023-05-02T06:00:21.306Z,6.15
2023-05-02T06:01:58.497Z,6.53
2023-05-02T06:03:32.014Z,7.30
2023-05-02T06:05:06.059Z,7.00
2023-05-02T06:06:39.263Z,7.20
2023-05-02T06:08:12.413Z,7.15
2023-05-02T06:09:45.521Z,6.75
2023-05-02T06:11:19.382Z,7.32
2023-05-02T06:12:52.492Z,5.97
2023-05-02T06:14:30.062Z,5.25
2023-05-02T06:16:05.186Z,6.13
2023-05-02T06:17:38.409Z,5.85
2023-05-02T06:19:11.523Z,6.00
2023-05-02T06:20:45.811Z,5.45
2023-05-02T06:22:18.965Z,6.05
2023-05-02T06:23:52.128Z,5.68
2023-05-02T06:25:25.248Z,5.97
2023-05-02T06:26:59.422Z,5.47
2023-05-02T06:28:33.419Z,6.10
2023-05-02T06:30:09.041Z,5.45
2023-05-02T06:31:43.454Z,5.55
2023-05-02T06:33:16.626Z,5.88
2023-05-02T06:34:49.771Z,5.07
2023-05-02T06:36:23.420Z,4.78
2023-05-02T06:37:56.511Z,3.97
2023-05-02T06:39:29.933Z,3.63
2023-05-02T06:41:03.105Z,4.10
2023-05-02T06:42:36.226Z,3.53
2023-05-02T06:44:09.288Z,3.55
2023-05-02T06:45:42.922Z,3.17
2023-05-02T06:47:17.400Z,3.30
2023-05-02T06:48:51.387Z,3.58
2023-05-02T06:50:24.697Z,3.58
2023-05-02T06:51:57.816Z,3.35
2023-05-02T06:53:32.921Z,3.47
2023-05-02T06:55:08.206Z,3.05
2023-05-02T06:56:41.595Z,3.47
2023-05-02T06:58:14.857Z,3.35
2023-05-02T06:59:47.930Z,3.38
2023-05-02T07:01:21.130Z,3.38
2023-05-02T07:02:56.295Z,3.47
2023-05-02T07:04:29.553Z,3.40
2023-05-02T07:06:02.748Z,3.60
2023-05-02T07:07:35.900Z,2.80
2023-05-02T07:09:08.991Z,2.97
2023-05-02T07:10:42.013Z,2.85
2023-05-02T07:12:15.187Z,3.13
2023-05-02T07:13:48.283Z,2.72
2023-05-02T07:15:21.309Z,2.50
2023-05-02T07:16:55.155Z,2.63
2023-05-02T07:18:29.742Z,2.13
2023-05-02T07:20:03.978Z,1.98
2023-05-02T07:21:37.273Z,1.67
2023-05-02T07:23:10.454Z,1.77
2023-05-02T07:24:44.074Z,1.63
2023-05-02T07:26:18.838Z,2.05
2023-05-02T07:27:51.952Z,2.00
2023-05-02T07:29:25.184Z,1.88
2023-05-02T07:30:58.584Z,2.38
2023-05-02T07:32:32.982Z,2.17
2023-05-02T07:34:07.606Z,2.10
2023-05-02T07:35:40.691Z,2.35
2023-05-02T07:37:20.104Z,1.87
2023-05-02T07:39:08.279Z,1.80
2023-05-02T07:40:41.708Z,2.10
2023-05-02T07:42:14.916Z,2.03
2023-05-02T07:43:47.999Z,1.98
2023-05-02T07:45:21.391Z,1.85
2023-05-02T07:46:55.227Z,1.80
2023-05-02T07:48:28.530Z,2.33
2023-05-02T07:50:04.499Z,2.20
2023-05-02T07:51:39.758Z,2.17
2023-05-02T07:53:12.883Z,2.28
2023-05-02T07:54:45.993Z,2.00
2023-05-02T07:56:19.037Z,2.58
2023-05-02T07:57:52.191Z,1.90
2023-05-02T07:59:25.353Z,2.70
2023-05-02T08:00:59.014Z,2.33
2023-05-02T08:02:32.246Z,2.15
2023-05-02T08:04:06.251Z,1.85
2023-05-02T08:05:40.790Z,2.30
2023-05-02T08:07:13.883Z,2.20
2023-05-02T08:08:46.956Z,2.47
2023-05-02T08:10:20.235Z,2.45
2023-05-02T08:11:53.402Z,2.33
2023-05-02T08:13:27.112Z,2.22
2023-05-02T08:15:00.238Z,2.50
2023-05-02T08:16:33.476Z,2.35
2023-05-02T08:18:07.217Z,2.17
2023-05-02T08:19:40.426Z,2.30
2023-05-02T08:21:15.233Z,2.50
2023-05-02T08:24:21.356Z,2.20
2023-05-02T08:25:55.441Z,2.53
2023-05-02T08:27:28.846Z,2.20
2023-05-02T08:29:04.267Z,2.30
2023-05-02T08:30:37.439Z,2.35
2023-05-02T08:32:10.650Z,2.78
2023-05-02T08:33:44.625Z,2.30
2023-05-02T08:35:17.973Z,2.38
2023-05-02T08:36:52.361Z,3.42
2023-05-02T08:38:25.824Z,3.42
2023-05-02T08:39:59.100Z,3.00
2023-05-02T08:41:32.668Z,4.13
2023-05-02T08:43:06.982Z,3.70
2023-05-02T08:44:40.134Z,3.00
2023-05-02T08:46:16.599Z,4.00
2023-05-02T08:47:51.905Z,3.90
2023-05-02T08:49:28.621Z,3.30
2023-05-02T08:51:03.551Z,3.90
2023-05-02T08:52:38.810Z,4.03
2023-05-02T08:54:12.435Z,3.80
2023-05-02T08:55:46.300Z,3.72
2023-05-02T08:57:19.519Z,3.30
2023-05-02T08:58:52.615Z,3.40
2023-05-02T09:00:26.017Z,3.38
2023-05-02T09:02:08.606Z,3.25
2023-05-02T09:03:44.580Z,2.78
2023-05-02T09:05:21.742Z,2.33
2023-05-02T09:06:54.862Z,2.63
2023-05-02T09:08:29.326Z,2.30
2023-05-02T09:10:02.866Z,2.17
2023-05-02T09:11:36.097Z,1.90
2023-05-02T09:13:34.471Z,1.80
2023-05-02T09:15:12.411Z,1.65
2023-05-02T09:16:46.433Z,1.50
2023-05-02T09:18:23.260Z,1.38
2023-05-02T09:20:02.001Z,1.50
2023-05-02T09:21:39.954Z,1.38
2023-05-02T09:23:13.886Z,1.23
2023-05-02T09:24:55.822Z,1.25
2023-05-02T09:26:32.155Z,1.20
2023-05-02T09:28:05.664Z,1.50
2023-05-02T09:29:40.714Z,1.45
2023-05-02T09:31:22.908Z,1.20
2023-05-02T09:33:05.173Z,1.25
2023-05-02T09:34:39.248Z,1.40
2023-05-02T09:36:15.728Z,1.33
2023-05-02T09:37:48.913Z,1.25
2023-05-02T09:39:26.059Z,1.17
2023-05-02T09:41:03.408Z,1.23
2023-05-02T09:42:37.116Z,1.20
2023-05-02T09:44:12.482Z,2.00
2023-05-02T09:45:59.281Z,1.75
2023-05-02T09:47:32.686Z,1.70
2023-05-02T09:49:05.806Z,2.08
2023-05-02T09:50:39.769Z,2.17
2023-05-02T09:52:14.256Z,2.90
2023-05-02T09:53:47.972Z,3.38
2023-05-02T09:55:24.016Z,3.38
2023-05-02T09:56:58.852Z,3.65
2023-05-02T09:58:32.614Z,3.47
2023-05-02T10:00:08.861Z,3.47
2023-05-02T10:01:46.381Z,3.42
2023-05-02T10:03:20.907Z,3.83
2023-05-02T10:04:57.986Z,3.95
2023-05-02T10:06:33.449Z,4.45
2023-05-02T10:08:09.972Z,4.43
2023-05-02T10:09:46.131Z,4.43
2023-05-02T10:11:19.481Z,4.35
2023-05-02T10:12:55.242Z,4.47
2023-05-02T10:14:29.789Z,4.15
2023-05-02T10:16:05.665Z,3.67
2023-05-02T10:17:49.442Z,4.63
2023-05-02T10:19:30.618Z,4.70
2023-05-02T10:21:13.039Z,5.40
2023-05-02T10:22:48.703Z,4.90
2023-05-02T10:24:22.646Z,5.40
2023-05-02T10:25:58.111Z,5.00
2023-05-02T10:27:33.304Z,4.60
2023-05-02T10:29:07.841Z,5.30
2023-05-02T10:30:42.551Z,5.15
2023-05-02T10:32:18.123Z,5.07
2023-05-02T10:33:52.934Z,5.07
2023-05-02T10:35:27.127Z,4.53
2023-05-02T10:37:02.083Z,3.38
2023-05-02T10:40:13.682Z,3.83
2023-05-02T10:41:47.369Z,3.00
2023-05-02T10:43:20.622Z,3.42
2023-05-02T10:44:55.322Z,3.17
2023-05-02T10:46:33.784Z,3.15
2023-05-02T10:48:18.721Z,2.80
2023-05-02T10:49:53.789Z,3.90
2023-05-02T10:51:31.312Z,3.55
2023-05-02T10:53:31.085Z,3.03
2023-05-02T10:55:22.059Z,3.42
2023-05-02T10:57:09.285Z,3.00
2023-05-02T10:58:43.086Z,2.80
2023-05-02T11:00:25.624Z,3.10
2023-05-02T11:01:59.148Z,3.40
2023-05-02T11:03:57.125Z,3.33
2023-05-02T11:07:20.110Z,2.75
2023-05-02T11:08:53.352Z,3.75
2023-05-02T11:10:28.324Z,3.42
2023-05-02T11:13:51.065Z,3.42
2023-05-02T11:16:00.170Z,3.30
2023-05-02T11:18:03.088Z,3.15
2023-05-02T11:20:27.893Z,3.45
2023-05-02T11:22:44.906Z,3.50
2023-05-02T11:24:40.671Z,3.17
2023-05-02T11:26:23.206Z,3.88
2023-05-02T11:27:56.224Z,3.35
2023-05-02T11:29:54.815Z,3.88
2023-05-02T11:31:55.825Z,3.50
2023-05-02T11:33:30.634Z,3.25
2023-05-02T11:35:04.314Z,3.33
2023-05-02T11:36:38.005Z,3.15
2023-05-02T11:38:14.926Z,3.00
2023-05-02T11:39:48.332Z,2.60
2023-05-02T11:41:21.887Z,2.60
2023-05-02T11:42:55.720Z,2.88
2023-05-02T11:44:29.037Z,2.75
2023-05-02T11:46:04.963Z,2.42
2023-05-02T11:47:40.028Z,2.95
2023-05-02T11:49:15.140Z,2.40
2023-05-02T11:50:51.491Z,2.45
2023-05-02T11:52:25.555Z,2.53
2023-05-02T11:53:58.836Z,2.65
2023-05-02T11:55:31.972Z,2.42
2023-05-02T11:57:05.242Z,2.80
2023-05-02T11:58:38.322Z,2.53
2023-05-02T12:00:13.093Z,2.60
2023-05-02T12:01:50.110Z,2.33
2023-05-02T12:03:30.121Z,2.65
2023-05-02T12:05:05.870Z,2.40
2023-05-02T12:06:39.793Z,2.67
2023-05-02T12:08:20.258Z,2.35
2023-05-02T12:09:55.802Z,2.63
2023-05-02T12:11:30.946Z,2.50
2023-05-02T12:13:07.327Z,2.78
2023-05-02T12:14:41.539Z,2.20
2023-05-02T12:16:15.314Z,2.85
2023-05-02T12:17:52.112Z,3.38
2023-05-02T12:19:27.678Z,2.50
2023-05-02T12:21:01.272Z,2.53
2023-05-02T12:22:34.950Z,2.75
2023-05-02T12:24:09.048Z,2.88
2023-05-02T12:25:44.147Z,2.58
2023-05-02T12:27:18.366Z,2.72
2023-05-02T12:28:54.453Z,3.20
2023-05-02T12:30:28.049Z,2.78
2023-05-02T12:32:01.797Z,2.50
2023-05-02T12:33:43.754Z,3.05
2023-05-02T12:35:24.064Z,3.10
2023-05-02T12:36:57.596Z,2.65
2023-05-02T12:38:31.039Z,2.63
2023-05-02T12:40:05.062Z,2.85
2023-05-02T12:41:43.584Z,2.90
2023-05-02T12:43:17.467Z,3.00
2023-05-02T12:44:53.218Z,3.10
2023-05-02T12:46:28.170Z,2.95
2023-05-02T12:48:02.509Z,3.20
2023-05-02T12:49:50.403Z,2.95
2023-05-02T12:51:25.142Z,2.67
2023-05-02T12:52:59.863Z,2.83
2023-05-02T12:56:07.524Z,3.05
2023-05-02T12:57:41.703Z,2.72
2023-05-02T12:59:28.001Z,2.88
2023-05-02T13:02:34.577Z,2.70
2023-05-02T13:04:07.741Z,3.13
2023-05-02T13:05:40.807Z,3.05
2023-05-02T13:07:15.334Z,2.92
2023-05-02T13:08:48.577Z,2.83
2023-05-02T13:10:22.040Z,3.13
2023-05-02T13:11:55.100Z,2.65
2023-05-02T13:13:28.318Z,3.00
2023-05-02T13:15:01.361Z,3.13
2023-05-02T13:16:36.617Z,3.88
2023-05-02T13:18:10.208Z,3.55
2023-05-02T13:19:50.492Z,3.50
2023-05-02T13:21:31.552Z,3.20
2023-05-02T13:23:06.062Z,3.42
2023-05-02T13:24:39.181Z,3.78
2023-05-02T13:26:12.759Z,3.38
2023-05-02T13:27:45.984Z,3.58
2023-05-02T13:29:19.608Z,3.15
2023-05-02T13:30:52.790Z,3.67
2023-05-02T13:32:26.050Z,3.58
2023-05-02T13:33:59.186Z,3.17
2023-05-02T13:35:33.482Z,3.70
2023-05-02T13:37:08.401Z,4.30
2023-05-02T13:38:42.876Z,4.00
2023-05-02T13:40:16.258Z,3.80
2023-05-02T13:41:49.618Z,3.58
2023-05-02T13:43:22.783Z,2.97
2023-05-02T13:44:56.231Z,3.35
2023-05-02T13:46:29.393Z,3.33
2023-05-02T13:48:05.646Z,3.63
2023-05-02T13:49:38.817Z,3.83
2023-05-02T13:51:12.047Z,3.60
2023-05-02T13:52:47.699Z,3.67
2023-05-02T13:54:23.555Z,3.80
2023-05-02T13:55:56.692Z,3.50
2023-05-02T13:57:29.820Z,3.45
2023-05-02T13:59:03.680Z,3.97
2023-05-02T14:00:38.128Z,2.85
2023-05-02T14:02:11.496Z,3.50
2023-05-02T14:03:44.734Z,3.17
2023-05-02T14:05:17.911Z,3.28
2023-05-02T14:06:51.403Z,3.20
2023-05-02T14:08:24.878Z,3.65
2023-05-02T14:09:59.564Z,3.55
2023-05-02T14:13:06.037Z,2.75
2023-05-02T14:14:39.131Z,3.08
2023-05-02T14:16:12.301Z,2.55
2023-05-02T14:17:45.480Z,3.03
2023-05-02T14:19:18.974Z,2.60
2023-05-02T14:20:52.091Z,2.67
2023-05-02T14:22:25.351Z,3.20
2023-05-02T14:23:58.715Z,3.20
2023-05-02T14:25:33.502Z,2.80
2023-05-02T14:27:07.598Z,2.72
2023-05-02T14:28:40.863Z,2.63
2023-05-02T14:30:14.282Z,2.75
2023-05-02T14:31:47.611Z,2.85
2023-05-02T14:33:21.004Z,3.00
2023-05-02T14:34:54.150Z,2.80
2023-05-02T14:36:27.260Z,2.30
2023-05-02T14:38:01.084Z,2.35
2023-05-02T14:39:34.177Z,2.65
2023-05-02T14:41:08.798Z,2.58
2023-05-02T14:42:42.158Z,2.58
2023-05-02T14:44:15.742Z,2.45
2023-05-02T14:45:48.853Z,3.08
2023-05-02T14:47:22.496Z,2.38
2023-05-02T14:48:55.548Z,2.20
2023-05-02T14:50:28.727Z,2.30
2023-05-02T14:52:01.952Z,2.38
2023-05-02T14:53:35.187Z,2.38
2023-05-02T14:55:09.260Z,2.17
2023-05-02T14:56:43.846Z,1.98
2023-05-02T14:58:20.420Z,2.92
2023-05-02T14:59:58.981Z,2.03
2023-05-02T15:01:32.167Z,2.60
2023-05-02T15:03:07.615Z,2.42
2023-05-02T15:04:41.171Z,2.10
2023-05-02T15:06:15.207Z,2.22
2023-05-02T15:07:48.379Z,2.25
2023-05-02T15:09:26.301Z,1.75
2023-05-02T15:10:59.373Z,2.50
2023-05-02T15:12:33.876Z,2.25
2023-05-02T15:14:07.120Z,2.42
2023-05-02T15:15:40.346Z,2.20
2023-05-02T15:17:13.591Z,2.38
2023-05-02T15:18:46.775Z,2.10
2023-05-02T15:20:20.420Z,2.20
2023-05-02T15:21:54.797Z,2.67
2023-05-02T15:23:27.940Z,2.50
2023-05-02T15:25:01.931Z,2.33
2023-05-02T15:26:36.274Z,2.22
2023-05-02T15:28:10.780Z,2.55
2023-05-02T15:29:43.858Z,2.80
2023-05-02T15:31:17.013Z,2.72
2023-05-02T15:32:50.236Z,2.35
2023-05-02T15:34:23.734Z,3.25
2023-05-02T15:35:59.340Z,2.28
2023-05-02T15:37:32.632Z,2.28
2023-05-02T15:39:06.696Z,2.22
2023-05-02T15:40:39.880Z,2.47
2023-05-02T15:42:13.463Z,2.50
2023-05-02T15:43:48.261Z,2.70
2023-05-02T15:46:55.844Z,2.65
2023-05-02T15:48:32.928Z,2.38
2023-05-02T15:50:07.476Z,2.70
2023-05-02T15:51:40.869Z,2.50
2023-05-02T15:53:15.065Z,3.03
2023-05-02T15:54:48.249Z,4.38
2023-05-02T15:56:22.136Z,3.78
2023-05-02T15:57:55.523Z,3.88
2023-05-02T15:59:30.007Z,3.05
2023-05-02T16:01:03.217Z,3.38
2023-05-02T16:02:37.872Z,2.80
2023-05-02T16:04:11.266Z,3.08
2023-05-02T16:05:44.404Z,3.10
2023-05-02T16:07:17.432Z,3.08
2023-05-02T16:08:50.515Z,4.03
2023-05-02T16:10:24.331Z,6.18
2023-05-02T16:11:57.816Z,3.60
2023-05-02T16:13:30.938Z,6.20
2023-05-02T16:15:08.195Z,4.03
2023-05-02T16:16:41.391Z,3.58
2023-05-02T16:18:14.920Z,3.70
2023-05-02T16:19:48.062Z,3.22
2023-05-02T16:21:21.550Z,3.17
2023-05-02T16:22:55.153Z,3.22
2023-05-02T16:24:28.373Z,3.63
2023-05-02T16:26:02.823Z,4.13
2023-05-02T16:27:35.979Z,4.30
2023-05-02T16:29:09.059Z,3.75
2023-05-02T16:30:43.498Z,3.85
2023-05-02T16:32:16.683Z,4.35
2023-05-02T16:33:50.842Z,4.30
2023-05-02T16:35:23.927Z,4.35
2023-05-02T16:36:57.038Z,4.45
2023-05-02T16:38:30.115Z,4.35
2023-05-02T16:40:05.389Z,3.50
2023-05-02T16:41:39.164Z,3.78
2023-05-02T16:43:12.433Z,3.65
2023-05-02T16:44:45.568Z,3.25
2023-05-02T16:46:20.160Z,4.00
2023-05-02T16:47:53.515Z,3.30
2023-05-02T16:49:26.679Z,3.92
2023-05-02T16:51:01.059Z,3.70
2023-05-02T16:52:36.519Z,3.63
2023-05-02T16:54:10.612Z,3.78
2023-05-02T16:55:43.835Z,4.57
2023-05-02T16:57:19.766Z,3.75
2023-05-02T16:58:53.094Z,4.07
2023-05-02T17:00:26.350Z,3.38
2023-05-02T17:02:00.813Z,4.07
2023-05-02T17:03:34.125Z,4.50
2023-05-02T17:05:09.531Z,4.57
2023-05-02T17:06:42.947Z,4.40
2023-05-02T17:08:16.843Z,4.07
2023-05-02T17:09:50.071Z,3.83
2023-05-02T17:11:25.258Z,3.80
2023-05-02T17:12:59.097Z,4.15
2023-05-02T17:14:32.915Z,3.70
2023-05-02T17:16:08.206Z,3.85
2023-05-02T17:17:42.920Z,3.80
2023-05-02T17:19:16.017Z,3.38
2023-05-02T17:20:49.230Z,3.20
2023-05-02T17:22:22.449Z,4.82
2023-05-02T17:23:55.655Z,4.68
2023-05-02T17:25:28.875Z,3.95
2023-05-02T17:27:02.755Z,3.60
2023-05-02T17:28:36.543Z,3.97
2023-05-02T17:30:11.004Z,3.60
2023-05-02T17:31:44.126Z,3.30
2023-05-02T17:33:18.668Z,3.20
2023-05-02T17:34:51.960Z,3.90
2023-05-02T17:36:25.065Z,3.42
2023-05-02T17:37:58.788Z,3.33
2023-05-02T17:39:31.921Z,3.15
2023-05-02T17:41:05.666Z,3.40
2023-05-02T17:42:38.963Z,3.33
2023-05-02T17:44:12.153Z,4.05
2023-05-02T17:45:45.747Z,4.60
2023-05-02T17:47:19.747Z,4.05
2023-05-02T17:48:54.420Z,3.50
2023-05-02T17:50:27.543Z,4.30
2023-05-02T17:52:00.643Z,3.80
2023-05-02T17:53:35.258Z,3.72
2023-05-02T17:55:09.679Z,3.20
2023-05-02T17:56:43.115Z,3.58
2023-05-02T17:58:16.250Z,3.38
2023-05-02T17:59:50.480Z,3.25
2023-05-02T18:01:23.674Z,2.78
2023-05-02T18:02:57.150Z,2.40
2023-05-02T18:04:31.763Z,2.40
2023-05-02T18:06:05.366Z,2.50
2023-05-02T18:07:38.570Z,2.38
2023-05-02T18:09:12.202Z,2.63
2023-05-02T18:10:45.377Z,2.25
2023-05-02T18:12:18.761Z,2.30
2023-05-02T18:13:51.880Z,2.88
2023-05-02T18:15:25.319Z,2.97
2023-05-02T18:16:58.762Z,2.30
2023-05-02T18:18:32.817Z,2.92
2023-05-02T18:20:09.795Z,2.50
2023-05-02T18:21:42.927Z,2.38
2023-05-02T18:23:16.866Z,2.15
2023-05-02T18:24:50.505Z,2.30
2023-05-02T18:26:23.654Z,2.30
2023-05-02T18:27:56.768Z,2.50
2023-05-02T18:29:30.181Z,2.80
2023-05-02T18:31:03.820Z,2.72
2023-05-02T18:32:37.649Z,2.33
2023-05-02T18:34:11.141Z,2.30
2023-05-02T18:35:47.957Z,2.35
2023-05-02T18:37:22.362Z,2.58
2023-05-02T18:38:55.667Z,2.05
2023-05-02T18:40:28.747Z,2.42
2023-05-02T18:42:03.962Z,2.38
2023-05-02T18:43:37.422Z,2.20
2023-05-02T18:45:11.041Z,2.70
2023-05-02T18:46:44.257Z,2.15
2023-05-02T18:48:17.430Z,2.20
2023-05-02T18:49:50.539Z,2.25
2023-05-02T18:51:25.013Z,2.25
2023-05-02T18:52:58.067Z,1.80
2023-05-02T18:54:33.374Z,2.30
2023-05-02T18:56:14.569Z,2.00
2023-05-02T18:57:48.175Z,2.40
2023-05-02T18:59:21.294Z,2.25
2023-05-02T19:00:54.782Z,2.15
2023-05-02T19:02:28.281Z,1.67
2023-05-02T19:04:02.792Z,2.45
2023-05-02T19:05:35.945Z,1.90
2023-05-02T19:07:10.407Z,2.10
2023-05-02T19:08:45.546Z,1.88
2023-05-02T19:10:18.729Z,1.92
2023-05-02T19:11:53.883Z,1.63
2023-05-02T19:13:28.037Z,2.30
2023-05-02T19:15:01.367Z,1.77
2023-05-02T19:16:37.981Z,2.30
2023-05-02T19:18:11.508Z,2.10
2023-05-02T19:19:46.620Z,1.92
2023-05-02T19:21:19.874Z,2.28
2023-05-02T19:23:07.212Z,2.28
2023-05-02T19:24:47.368Z,2.20
2023-05-02T19:26:20.795Z,2.15
2023-05-02T19:27:53.859Z,2.20
2023-05-02T19:29:27.048Z,2.55
2023-05-02T19:31:00.112Z,2.25
2023-05-02T19:32:33.541Z,1.63
2023-05-02T19:34:07.049Z,1.77
2023-05-02T19:35:40.454Z,1.88
2023-05-02T19:37:13.537Z,2.20
2023-05-02T19:38:51.111Z,1.92
2023-05-02T19:40:24.194Z,1.88
2023-05-02T19:41:57.340Z,2.05
2023-05-02T19:43:31.246Z,1.98
2023-05-02T19:45:04.904Z,1.80
2023-05-02T19:46:38.402Z,2.28
2023-05-02T19:48:12.794Z,1.90
2023-05-02T19:49:46.602Z,2.03
2023-05-02T19:51:25.123Z,2.20
2023-05-02T19:52:58.200Z,2.08
2023-05-02T19:54:33.429Z,1.50
2023-05-02T19:56:08.273Z,2.25
2023-05-02T19:57:44.053Z,1.98
2023-05-02T19:59:17.216Z,2.30
2023-05-02T20:00:51.629Z,1.77
2023-05-02T20:02:25.096Z,1.88
2023-05-02T20:03:58.390Z,2.22
2023-05-02T20:05:31.851Z,2.30
2023-05-02T20:07:05.030Z,2.90
2023-05-02T20:08:38.136Z,2.60
2023-05-02T20:10:13.060Z,3.20
2023-05-02T20:13:19.372Z,2.30
2023-05-02T20:14:52.728Z,1.85
2023-05-02T20:16:25.974Z,2.15
2023-05-02T20:18:00.786Z,1.80
2023-05-02T20:19:33.972Z,2.15
2023-05-02T20:21:07.033Z,1.88
2023-05-02T20:22:41.041Z,2.55
2023-05-02T20:24:14.125Z,2.33
2023-05-02T20:25:48.677Z,1.83
2023-05-02T20:27:22.105Z,2.55
2023-05-02T20:28:58.474Z,1.90
2023-05-02T20:30:31.818Z,1.83
2023-05-02T20:32:05.943Z,2.10
2023-05-02T20:33:45.479Z,1.60
2023-05-02T20:35:19.605Z,2.10
2023-05-02T20:36:53.236Z,2.05
2023-05-02T20:38:26.776Z,2.10
2023-05-02T20:40:01.296Z,1.92
2023-05-02T20:41:36.384Z,2.25
2023-05-02T20:43:09.484Z,2.50
2023-05-02T20:44:42.587Z,2.25
2023-05-02T20:46:17.132Z,2.00
2023-05-02T20:47:51.273Z,2.10
2023-05-02T20:49:24.511Z,1.98
2023-05-02T20:50:57.620Z,1.92
2023-05-02T20:52:30.709Z,2.33
2023-05-02T20:54:04.468Z,2.00
2023-05-02T20:55:37.494Z,1.95
2023-05-02T20:57:12.012Z,2.30
2023-05-02T20:58:45.490Z,2.20
2023-05-02T21:00:20.325Z,2.03
2023-05-02T21:01:53.495Z,2.15
2023-05-02T21:03:28.463Z,1.95
2023-05-02T21:06:34.708Z,1.73
2023-05-02T21:08:07.970Z,1.70
2023-05-02T21:09:41.047Z,1.73
2023-05-02T21:11:15.089Z,2.00
2023-05-02T21:12:49.614Z,2.20
2023-05-02T21:14:25.733Z,1.98
2023-05-02T21:15:58.857Z,2.40
2023-05-02T21:17:32.221Z,1.92
2023-05-02T21:19:05.882Z,2.13
2023-05-02T21:20:41.331Z,1.80
2023-05-02T21:22:14.549Z,2.17
2023-05-02T21:23:47.873Z,2.00
2023-05-02T21:25:20.960Z,2.03
2023-05-02T21:26:54.158Z,1.80
2023-05-02T21:28:29.039Z,1.80
2023-05-02T21:30:02.251Z,2.13
2023-05-02T21:31:35.584Z,1.95
2023-05-02T21:33:09.189Z,2.05
2023-05-02T21:34:42.509Z,2.42